LTAT/MLX METAR and TAF weather

Enter ICAO airport designator
Station Type Date Time Source
LTAT METAR 2020/03/28 08:20 UTC NOAA

LTAT 280820Z VRB04KT 9999 FEW012 BKN033 BKN090 12/08 Q1013 BECMG TL0900 21014KT


Station Type Date Time Source
LTAT Decoded METAR 2020/03/28 08:20 UTC NOAA

Malatya / Erhac, Turkey (LTAT) 38-26N 038-05E 849M
Mar 28, 2020 - 04:20 AM EDT / 2020.03.28 0820 UTC
Wind: Variable at 5 MPH (4 KT):0
Visibility: greater than 7 mile(s):0
Sky conditions: mostly cloudy
Temperature: 53 F (12 C)
Dew Point: 46 F (8 C)
Relative Humidity: 76%
Pressure (altimeter): 29.91 in. Hg (1013 hPa)
ob: LTAT 280820Z VRB04KT 9999 FEW012 BKN033 BKN090 12/08 Q1013 BECMG TL0900 21014KT
cycle: 8

Station Type Date Time Source
LTAT TAF 2020/03/28 06:03 UTC NOAA

TAF LTAT 280440Z 2806/2906 21014KT 9999 SCT040 BKN090
TEMPO 2806/2809 -SHRA PROB30
TEMPO 2811/2814 -TSRA FEW030CB BKN035 BKN090
TEMPO 2820/2824 -SHRA BKN035 BKN090

Example: see airport list